sensor_id;sensor_type;location;lat;lon;timestamp;pressure;altitude;pressure_sealevel;temperature;humidity
62791;BME280;48830;53.426;10.300;2023-03-23T00:01:06;100292.06;;;11.73;100.00
62791;BME280;48830;53.426;10.300;2023-03-23T00:03:35;100298.94;;;11.63;100.00
62791;BME280;48830;53.426;10.300;2023-03-23T00:06:00;100286.06;;;11.65;100.00
62791;BME280;48830;53.426;10.300;2023-03-23T00:08:32;100300.63;;;11.56;100.00
62791;BME280;48830;53.426;10.300;2023-03-23T00:10:58;100302.25;;;11.41;100.00
62791;BME280;48830;53.426;10.300;2023-03-23T00:13:27;100297.16;;;11.50;100.00
62791;BME280;48830;53.426;10.300;2023-03-23T00:15:53;100298.84;;;11.39;100.00
62791;BME280;48830;53.426;10.300;2023-03-23T00:18:20;100300.53;;;11.34;100.00
62791;BME280;48830;53.426;10.300;2023-03-23T00:20:49;100285.97;;;11.36;100.00
62791;BME280;48830;53.426;10.300;2023-03-23T00:23:20;100291.06;;;11.29;100.00
62791;BME280;48830;53.426;10.300;2023-03-23T00:25:47;100291.06;;;11.22;100.00
62791;BME280;48830;53.426;10.300;2023-03-23T00:28:14;100290.19;;;11.24;100.00
62791;BME280;48830;53.426;10.300;2023-03-23T00:30:40;100288.47;;;11.14;100.00
62791;BME280;48830;53.426;10.300;2023-03-23T00:33:08;100288.47;;;11.14;100.00
62791;BME280;48830;53.426;10.300;2023-03-23T00:35:40;100287.53;;;11.04;100.00
62791;BME280;48830;53.426;10.300;2023-03-23T00:38:05;100281.53;;;11.07;100.00
62791;BME280;48830;53.426;10.300;2023-03-23T00:40:31;100282.41;;;11.04;100.00
62791;BME280;48830;53.426;10.300;2023-03-23T00:43:00;100290.97;;;11.03;100.00
62791;BME280;48830;53.426;10.300;2023-03-23T00:45:28;100294.34;;;10.96;100.00
62791;BME280;48830;53.426;10.300;2023-03-23T00:47:54;100291.81;;;10.98;100.00
62791;BME280;48830;53.426;10.300;2023-03-23T00:50:19;100290.06;;;10.95;100.00
62791;BME280;48830;53.426;10.300;2023-03-23T00:52:45;100286.66;;;10.98;100.00
62791;BME280;48830;53.426;10.300;2023-03-23T00:55:10;100286.59;;;10.89;100.00
62791;BME280;48830;53.426;10.300;2023-03-23T00:57:36;100278.03;;;10.90;100.00
62791;BME280;48830;53.426;10.300;2023-03-23T01:00:01;100278.88;;;10.92;100.00
62791;BME280;48830;53.426;10.300;2023-03-23T01:02:29;100270.28;;;10.87;100.00
62791;BME280;48830;53.426;10.300;2023-03-23T01:04:54;100279.75;;;10.88;100.00
62791;BME280;48830;53.426;10.300;2023-03-23T01:07:20;100279.69;;;10.85;100.00
62791;BME280;48830;53.426;10.300;2023-03-23T01:09:48;100262.59;;;10.88;100.00
62791;BME280;48830;53.426;10.300;2023-03-23T01:12:13;100235.16;;;10.87;100.00
62791;BME280;48830;53.426;10.300;2023-03-23T01:14:40;100234.31;;;10.88;100.00
62791;BME280;48830;53.426;10.300;2023-03-23T01:17:06;100239.44;;;10.85;100.00
62791;BME280;48830;53.426;10.300;2023-03-23T01:19:33;100247.13;;;10.87;100.00
62791;BME280;48830;53.426;10.300;2023-03-23T01:21:59;100235.13;;;10.83;100.00
62791;BME280;48830;53.426;10.300;2023-03-23T01:24:25;100226.56;;;10.85;100.00
62791;BME280;48830;53.426;10.300;2023-03-23T01:26:50;100230.00;;;10.84;100.00
62791;BME280;48830;53.426;10.300;2023-03-23T01:29:15;100212.84;;;10.77;100.00
62791;BME280;48830;53.426;10.300;2023-03-23T01:31:41;100199.13;;;10.80;100.00
62791;BME280;48830;53.426;10.300;2023-03-23T01:34:08;100196.53;;;10.81;100.00
62791;BME280;48830;53.426;10.300;2023-03-23T01:36:35;100197.41;;;10.78;100.00
62791;BME280;48830;53.426;10.300;2023-03-23T01:39:04;100191.41;;;10.78;100.00
62791;BME280;48830;53.426;10.300;2023-03-23T01:41:32;100200.78;;;10.68;100.00
62791;BME280;48830;53.426;10.300;2023-03-23T01:44:07;100192.25;;;10.78;100.00
62791;BME280;48830;53.426;10.300;2023-03-23T01:46:52;100189.69;;;10.77;100.00
62791;BME280;48830;53.426;10.300;2023-03-23T01:49:26;100177.66;;;10.76;100.00
62791;BME280;48830;53.426;10.300;2023-03-23T01:51:56;100181.13;;;10.80;100.00
62791;BME280;48830;53.426;10.300;2023-03-23T01:54:24;100183.69;;;10.80;100.00
62791;BME280;48830;53.426;10.300;2023-03-23T01:56:59;100189.66;;;10.71;100.00
62791;BME280;48830;53.426;10.300;2023-03-23T01:59:29;100204.25;;;10.76;100.00
62791;BME280;48830;53.426;10.300;2023-03-23T02:02:12;100193.13;;;10.77;100.00
62791;BME280;48830;53.426;10.300;2023-03-23T02:04:39;100187.97;;;10.81;100.00
62791;BME280;48830;53.426;10.300;2023-03-23T02:07:06;100182.84;;;10.81;100.00
62791;BME280;48830;53.426;10.300;2023-03-23T02:09:33;100176.84;;;10.78;100.00
62791;BME280;48830;53.426;10.300;2023-03-23T02:11:58;100163.13;;;10.78;100.00
62791;BME280;48830;53.426;10.300;2023-03-23T02:14:26;100158.84;;;10.78;100.00
62791;BME280;48830;53.426;10.300;2023-03-23T02:16:58;100163.16;;;10.83;100.00
62791;BME280;48830;53.426;10.300;2023-03-23T02:22:35;100152.84;;;10.76;100.00
62791;BME280;48830;53.426;10.300;2023-03-23T02:31:01;100154.56;;;10.85;100.00
62791;BME280;48830;53.426;10.300;2023-03-23T02:41:50;100159.72;;;10.84;100.00
62791;BME280;48830;53.426;10.300;2023-03-23T02:44:19;100162.28;;;10.85;100.00
62791;BME280;48830;53.426;10.300;2023-03-23T02:46:44;100156.28;;;10.82;100.00
62791;BME280;48830;53.426;10.300;2023-03-23T02:49:12;100147.72;;;10.83;100.00
62791;BME280;48830;53.426;10.300;2023-03-23T02:51:42;100140.84;;;10.78;100.00
62791;BME280;48830;53.426;10.300;2023-03-23T02:54:10;100135.72;;;10.78;100.00
62791;BME280;48830;53.426;10.300;2023-03-23T02:56:37;100140.84;;;10.77;100.00
62791;BME280;48830;53.426;10.300;2023-03-23T02:59:09;100138.31;;;10.82;100.00
62791;BME280;48830;53.426;10.300;2023-03-23T03:04:14;100136.59;;;10.88;100.00
62791;BME280;48830;53.426;10.300;2023-03-23T03:12:21;100121.16;;;10.85;100.00
62791;BME280;48830;53.426;10.300;2023-03-23T03:14:58;100120.31;;;10.89;100.00
62791;BME280;48830;53.426;10.300;2023-03-23T03:17:28;100116.03;;;10.91;100.00
62791;BME280;48830;53.426;10.300;2023-03-23T03:20:02;100110.03;;;10.88;100.00
62791;BME280;48830;53.426;10.300;2023-03-23T03:22:35;100112.59;;;10.89;100.00
62791;BME280;48830;53.426;10.300;2023-03-23T03:25:04;100112.63;;;10.95;100.00
62791;BME280;48830;53.426;10.300;2023-03-23T03:27:31;100096.34;;;10.95;100.00
62791;BME280;48830;53.426;10.300;2023-03-23T03:30:09;100104.91;;;10.97;100.00
62791;BME280;48830;53.426;10.300;2023-03-23T03:32:47;100083.47;;;10.96;100.00
62791;BME280;48830;53.426;10.300;2023-03-23T03:35:15;100068.91;;;10.97;100.00
62791;BME280;48830;53.426;10.300;2023-03-23T03:37:41;100068.06;;;10.99;100.00
62791;BME280;48830;53.426;10.300;2023-03-23T03:40:12;100080.06;;;10.99;100.00
62791;BME280;48830;53.426;10.300;2023-03-23T03:42:41;100094.63;;;11.00;100.00
62791;BME280;48830;53.426;10.300;2023-03-23T03:45:09;100076.63;;;11.00;100.00
62791;BME280;48830;53.426;10.300;2023-03-23T03:47:35;100080.06;;;11.02;100.00
62791;BME280;48830;53.426;10.300;2023-03-23T03:50:01;100074.94;;;11.03;100.00
62791;BME280;48830;53.426;10.300;2023-03-23T03:52:27;100069.78;;;11.00;100.00
62791;BME280;48830;53.426;10.300;2023-03-23T03:54:54;100067.22;;;10.99;100.00
62791;BME280;48830;53.426;10.300;2023-03-23T03:57:21;100059.50;;;11.03;100.00
62791;BME280;48830;53.426;10.300;2023-03-23T04:00:07;100067.22;;;11.05;100.00
62791;BME280;48830;53.426;10.300;2023-03-23T04:02:41;100056.06;;;11.00;100.00
62791;BME280;48830;53.426;10.300;2023-03-23T04:05:07;100059.47;;;11.02;100.00
62791;BME280;48830;53.426;10.300;2023-03-23T04:07:34;100053.47;;;10.97;100.00
62791;BME280;48830;53.426;10.300;2023-03-23T04:10:04;100047.50;;;11.04;100.00
62791;BME280;48830;53.426;10.300;2023-03-23T04:12:31;100045.78;;;11.01;100.00
62791;BME280;48830;53.426;10.300;2023-03-23T04:14:57;100043.19;;;11.01;100.00
62791;BME280;48830;53.426;10.300;2023-03-23T04:17:30;100050.91;;;10.97;100.00
62791;BME280;48830;53.426;10.300;2023-03-23T04:19:56;100042.34;;;11.01;100.00
62791;BME280;48830;53.426;10.300;2023-03-23T04:22:23;100044.06;;;11.03;100.00
62791;BME280;48830;53.426;10.300;2023-03-23T04:24:57;100046.63;;;11.08;100.00
62791;BME280;48830;53.426;10.300;2023-03-23T04:27:25;100056.06;;;11.08;100.00
62791;BME280;48830;53.426;10.300;2023-03-23T04:29:54;100056.94;;;11.13;100.00
62791;BME280;48830;53.426;10.300;2023-03-23T04:32:39;100058.63;;;11.14;100.00
62791;BME280;48830;53.426;10.300;2023-03-23T04:35:13;100047.50;;;11.13;100.00
62791;BME280;48830;53.426;10.300;2023-03-23T04:37:47;100069.81;;;11.16;100.00
62791;BME280;48830;53.426;10.300;2023-03-23T04:40:17;100063.81;;;11.23;100.00
62791;BME280;48830;53.426;10.300;2023-03-23T04:42:49;100056.94;;;11.22;100.00
62791;BME280;48830;53.426;10.300;2023-03-23T04:45:45;100063.81;;;11.27;100.00
62791;BME280;48830;53.426;10.300;2023-03-23T04:48:12;100074.09;;;11.27;100.00
62791;BME280;48830;53.426;10.300;2023-03-23T04:50:47;100071.53;;;11.29;100.00
62791;BME280;48830;53.426;10.300;2023-03-23T04:53:20;100067.25;;;11.26;100.00
62791;BME280;48830;53.426;10.300;2023-03-23T04:55:47;100084.38;;;11.29;100.00
62791;BME280;48830;53.426;10.300;2023-03-23T04:58:14;100074.13;;;11.37;100.00
62791;BME280;48830;53.426;10.300;2023-03-23T05:00:55;100058.66;;;11.38;100.00
62791;BME280;48830;53.426;10.300;2023-03-23T05:03:22;100068.97;;;11.37;100.00
62791;BME280;48830;53.426;10.300;2023-03-23T05:05:51;100056.94;;;11.39;100.00
62791;BME280;48830;53.426;10.300;2023-03-23T05:08:23;100056.09;;;11.38;100.00
62791;BME280;48830;53.426;10.300;2023-03-23T05:10:54;100043.22;;;11.43;100.00
62791;BME280;48830;53.426;10.300;2023-03-23T05:13:22;100044.94;;;11.44;100.00
62791;BME280;48830;53.426;10.300;2023-03-23T05:15:51;100044.09;;;11.48;100.00
62791;BME280;48830;53.426;10.300;2023-03-23T05:18:17;100050.09;;;11.44;100.00
62791;BME280;48830;53.426;10.300;2023-03-23T05:20:42;100050.09;;;11.47;100.00
62791;BME280;48830;53.426;10.300;2023-03-23T05:23:14;100043.22;;;11.49;100.00
62791;BME280;48830;53.426;10.300;2023-03-23T05:25:40;100043.25;;;11.47;100.00
62791;BME280;48830;53.426;10.300;2023-03-23T05:28:12;100038.06;;;11.46;100.00
62791;BME280;48830;53.426;10.300;2023-03-23T05:30:57;100039.81;;;11.53;100.00
62791;BME280;48830;53.426;10.300;2023-03-23T05:33:27;100039.81;;;11.48;100.00
62791;BME280;48830;53.426;10.300;2023-03-23T05:36:02;100041.50;;;11.43;100.00
62791;BME280;48830;53.426;10.300;2023-03-23T05:38:35;100038.97;;;11.46;100.00
62791;BME280;48830;53.426;10.300;2023-03-23T05:41:01;100054.38;;;11.48;100.00
62791;BME280;48830;53.426;10.300;2023-03-23T05:43:36;100048.38;;;11.47;100.00
62791;BME280;48830;53.426;10.300;2023-03-23T05:46:37;100048.38;;;11.52;100.00
62791;BME280;48830;53.426;10.300;2023-03-23T05:49:03;100044.09;;;11.49;100.00
62791;BME280;48830;53.426;10.300;2023-03-23T05:51:35;100050.09;;;11.53;100.00
62791;BME280;48830;53.426;10.300;2023-03-23T05:54:01;100051.81;;;11.57;100.00
62791;BME280;48830;53.426;10.300;2023-03-23T05:56:27;100055.25;;;11.53;100.00
62791;BME280;48830;53.426;10.300;2023-03-23T05:59:14;100056.97;;;11.57;100.00
62791;BME280;48830;53.426;10.300;2023-03-23T06:01:43;100058.69;;;11.52;100.00
62791;BME280;48830;53.426;10.300;2023-03-23T06:04:08;100051.81;;;11.59;100.00
62791;BME280;48830;53.426;10.300;2023-03-23T06:06:54;100048.38;;;11.53;100.00
62791;BME280;48830;53.426;10.300;2023-03-23T06:09:21;100059.53;;;11.63;100.00
62791;BME280;48830;53.426;10.300;2023-03-23T06:12:09;100051.81;;;11.68;100.00
62791;BME280;48830;53.426;10.300;2023-03-23T06:14:57;100047.50;;;11.67;100.00
62791;BME280;48830;53.426;10.300;2023-03-23T06:17:34;100040.66;;;11.73;100.00
62791;BME280;48830;53.426;10.300;2023-03-23T06:20:02;100041.50;;;11.69;100.00
62791;BME280;48830;53.426;10.300;2023-03-23T06:22:29;100043.19;;;11.76;100.00
62791;BME280;48830;53.426;10.300;2023-03-23T06:25:11;100046.63;;;11.72;100.00
62791;BME280;48830;53.426;10.300;2023-03-23T06:27:40;100032.06;;;11.79;100.00
62791;BME280;48830;53.426;10.300;2023-03-23T06:30:07;100034.66;;;11.68;100.00
62791;BME280;48830;53.426;10.300;2023-03-23T06:32:33;100043.22;;;11.73;100.00
62791;BME280;48830;53.426;10.300;2023-03-23T06:35:00;100045.78;;;11.75;100.00
62791;BME280;48830;53.426;10.300;2023-03-23T06:37:32;100054.38;;;11.75;100.00
62791;BME280;48830;53.426;10.300;2023-03-23T06:40:05;100056.94;;;11.72;100.00
62791;BME280;48830;53.426;10.300;2023-03-23T06:42:36;100054.38;;;11.69;100.00
62791;BME280;48830;53.426;10.300;2023-03-23T06:45:25;100050.91;;;11.76;100.00
62791;BME280;48830;53.426;10.300;2023-03-23T06:48:05;100051.81;;;11.63;100.00
62791;BME280;48830;53.426;10.300;2023-03-23T06:50:31;100060.38;;;11.68;100.00
62791;BME280;48830;53.426;10.300;2023-03-23T06:52:57;100054.38;;;11.62;100.00
62791;BME280;48830;53.426;10.300;2023-03-23T06:55:23;100063.81;;;11.69;100.00
62791;BME280;48830;53.426;10.300;2023-03-23T06:57:49;100056.09;;;11.69;100.00
62791;BME280;48830;53.426;10.300;2023-03-23T07:00:15;100054.38;;;11.75;100.00
62791;BME280;48830;53.426;10.300;2023-03-23T07:02:43;100052.63;;;11.73;100.00
62791;BME280;48830;53.426;10.300;2023-03-23T07:05:10;100046.66;;;11.83;100.00
62791;BME280;48830;53.426;10.300;2023-03-23T07:07:37;100046.63;;;11.94;100.00
62791;BME280;48830;53.426;10.300;2023-03-23T07:10:13;100051.75;;;12.03;100.00
62791;BME280;48830;53.426;10.300;2023-03-23T07:12:39;100054.31;;;12.09;100.00
62791;BME280;48830;53.426;10.300;2023-03-23T07:15:08;100050.88;;;12.08;100.00
62791;BME280;48830;53.426;10.300;2023-03-23T07:17:38;100043.19;;;12.07;100.00
62791;BME280;48830;53.426;10.300;2023-03-23T07:20:26;100056.06;;;12.02;100.00
62791;BME280;48830;53.426;10.300;2023-03-23T07:22:53;100042.31;;;12.13;100.00
62791;BME280;48830;53.426;10.300;2023-03-23T07:25:32;100048.31;;;12.13;100.00
62791;BME280;48830;53.426;10.300;2023-03-23T07:28:00;100062.06;;;12.17;100.00
62791;BME280;48830;53.426;10.300;2023-03-23T07:30:27;100060.31;;;12.23;100.00
62791;BME280;48830;53.426;10.300;2023-03-23T07:32:54;100057.69;;;12.29;100.00
62791;BME280;48830;53.426;10.300;2023-03-23T07:35:20;100065.38;;;12.42;100.00
62791;BME280;48830;53.426;10.300;2023-03-23T07:37:53;100054.16;;;12.53;100.00
62791;BME280;48830;53.426;10.300;2023-03-23T07:40:19;100062.75;;;12.57;100.00
62791;BME280;48830;53.426;10.300;2023-03-23T07:42:53;100074.78;;;12.56;100.00
62791;BME280;48830;53.426;10.300;2023-03-23T07:45:42;100079.06;;;12.62;100.00
62791;BME280;48830;53.426;10.300;2023-03-23T07:48:08;100075.66;;;12.54;100.00
62791;BME280;48830;53.426;10.300;2023-03-23T07:50:34;100079.91;;;12.58;100.00
62791;BME280;48830;53.426;10.300;2023-03-23T07:53:05;100081.66;;;12.57;100.00
62791;BME280;48830;53.426;10.300;2023-03-23T07:55:32;100073.06;;;12.55;100.00
62791;BME280;48830;53.426;10.300;2023-03-23T07:58:04;100084.25;;;12.50;100.00
62791;BME280;48830;53.426;10.300;2023-03-23T08:00:30;100080.81;;;12.51;100.00
62791;BME280;48830;53.426;10.300;2023-03-23T08:02:57;100073.91;;;12.59;100.00
62791;BME280;48830;53.426;10.300;2023-03-23T08:05:47;100077.25;;;12.79;100.00
62791;BME280;48830;53.426;10.300;2023-03-23T08:08:42;100078.09;;;12.80;100.00
62791;BME280;48830;53.426;10.300;2023-03-23T08:11:26;100080.56;;;12.97;100.00
62791;BME280;48830;53.426;10.300;2023-03-23T08:14:12;100080.44;;;13.18;100.00
62791;BME280;48830;53.426;10.300;2023-03-23T08:16:37;100089.03;;;13.23;100.00
62791;BME280;48830;53.426;10.300;2023-03-23T08:19:41;100085.59;;;13.30;100.00
62791;BME280;48830;53.426;10.300;2023-03-23T08:22:41;100064.97;;;13.18;100.00
62791;BME280;48830;53.426;10.300;2023-03-23T08:25:27;100071.75;;;13.41;100.00
62791;BME280;48830;53.426;10.300;2023-03-23T08:28:06;100078.66;;;13.35;100.00
62791;BME280;48830;53.426;10.300;2023-03-23T08:30:55;100099.38;;;13.26;100.00
62791;BME280;48830;53.426;10.300;2023-03-23T08:33:33;100099.38;;;13.20;100.00
62791;BME280;48830;53.426;10.300;2023-03-23T08:36:28;100075.28;;;13.26;100.00
62791;BME280;48830;53.426;10.300;2023-03-23T08:39:05;100085.63;;;13.23;100.00
62791;BME280;48830;53.426;10.300;2023-03-23T08:41:31;100084.81;;;13.10;100.00
62791;BME280;48830;53.426;10.300;2023-03-23T08:44:16;100090.81;;;13.15;100.00
62791;BME280;48830;53.426;10.300;2023-03-23T08:47:08;100100.22;;;13.18;100.00
62791;BME280;48830;53.426;10.300;2023-03-23T08:49:49;100106.38;;;13.00;100.00
62791;BME280;48830;53.426;10.300;2023-03-23T08:52:46;100116.72;;;12.91;100.00
62791;BME280;48830;53.426;10.300;2023-03-23T08:55:32;100127.94;;;12.85;100.00
62791;BME280;48830;53.426;10.300;2023-03-23T08:58:30;100125.50;;;12.56;100.00
62791;BME280;48830;53.426;10.300;2023-03-23T09:00:58;100104.84;;;12.53;100.00
62791;BME280;48830;53.426;10.300;2023-03-23T09:03:47;100111.75;;;12.51;100.00
62791;BME280;48830;53.426;10.300;2023-03-23T09:06:32;100107.53;;;12.30;100.00
62791;BME280;48830;53.426;10.300;2023-03-23T09:08:58;100116.94;;;12.42;100.00
62791;BME280;48830;53.426;10.300;2023-03-23T09:11:25;100117.72;;;12.59;100.00
62791;BME280;48830;53.426;10.300;2023-03-23T09:13:51;100124.56;;;12.74;100.00
62791;BME280;48830;53.426;10.300;2023-03-23T09:16:17;100119.41;;;12.69;100.00
62791;BME280;48830;53.426;10.300;2023-03-23T09:18:42;100128.94;;;12.46;100.00
62791;BME280;48830;53.426;10.300;2023-03-23T09:21:09;100122.06;;;12.54;100.00
62791;BME280;48830;53.426;10.300;2023-03-23T09:23:34;100118.66;;;12.46;100.00
62791;BME280;48830;53.426;10.300;2023-03-23T09:26:01;100122.94;;;12.54;100.00
62791;BME280;48830;53.426;10.300;2023-03-23T09:28:27;100134.09;;;12.43;100.00
62791;BME280;48830;53.426;10.300;2023-03-23T09:30:55;100168.47;;;12.45;100.00
62791;BME280;48830;53.426;10.300;2023-03-23T09:33:24;100156.50;;;12.28;100.00
62791;BME280;48830;53.426;10.300;2023-03-23T09:35:51;100151.25;;;12.53;100.00
62791;BME280;48830;53.426;10.300;2023-03-23T09:38:16;100152.16;;;12.41;100.00
62791;BME280;48830;53.426;10.300;2023-03-23T09:40:54;100146.16;;;12.41;100.00
62791;BME280;48830;53.426;10.300;2023-03-23T09:43:42;100164.19;;;12.39;100.00
62791;BME280;48830;53.426;10.300;2023-03-23T09:46:16;100165.94;;;12.19;100.00
62791;BME280;48830;53.426;10.300;2023-03-23T09:48:59;100169.38;;;12.30;100.00
62791;BME280;48830;53.426;10.300;2023-03-23T09:51:49;100169.31;;;12.48;100.00
62791;BME280;48830;53.426;10.300;2023-03-23T09:54:23;100165.00;;;12.58;100.00
62791;BME280;48830;53.426;10.300;2023-03-23T09:56:50;100166.69;;;12.71;100.00
62791;BME280;48830;53.426;10.300;2023-03-23T10:01:51;100171.75;;;12.94;100.00
62791;BME280;48830;53.426;10.300;2023-03-23T10:07:17;100182.03;;;13.08;100.00
62791;BME280;48830;53.426;10.300;2023-03-23T10:09:45;100176.75;;;13.35;100.00
62791;BME280;48830;53.426;10.300;2023-03-23T10:15:20;100182.59;;;14.62;100.00
62791;BME280;48830;53.426;10.300;2023-03-23T10:18:02;100176.81;;;15.14;100.00
62791;BME280;48830;53.426;10.300;2023-03-23T10:20:48;100193.44;;;14.07;100.00
62791;BME280;48830;53.426;10.300;2023-03-23T10:25:52;100192.81;;;13.76;100.00
62791;BME280;48830;53.426;10.300;2023-03-23T10:28:24;100192.81;;;13.76;100.00
62791;BME280;48830;53.426;10.300;2023-03-23T10:30:56;100193.69;;;13.76;100.00
62791;BME280;48830;53.426;10.300;2023-03-23T10:33:27;100192.06;;;13.63;100.00
62791;BME280;48830;53.426;10.300;2023-03-23T10:38:26;100198.19;;;13.51;100.00
62791;BME280;48830;53.426;10.300;2023-03-23T10:40:57;100209.38;;;13.44;100.00
62791;BME280;48830;53.426;10.300;2023-03-23T10:43:24;100205.94;;;13.47;100.00
62791;BME280;48830;53.426;10.300;2023-03-23T10:46:21;100213.66;;;13.53;100.00
62791;BME280;48830;53.426;10.300;2023-03-23T10:48:49;100218.78;;;13.57;100.00
62791;BME280;48830;53.426;10.300;2023-03-23T10:51:19;100215.28;;;13.64;100.00
62791;BME280;48830;53.426;10.300;2023-03-23T10:53:51;100224.78;;;13.59;100.00
62791;BME280;48830;53.426;10.300;2023-03-23T10:56:29;100214.44;;;13.67;100.00
62791;BME280;48830;53.426;10.300;2023-03-23T10:58:59;100223.06;;;13.60;100.00
62791;BME280;48830;53.426;10.300;2023-03-23T11:01:32;100220.50;;;13.61;100.00
62791;BME280;48830;53.426;10.300;2023-03-23T11:03:59;100232.63;;;13.46;100.00
62791;BME280;48830;53.426;10.300;2023-03-23T11:06:33;100247.28;;;13.34;100.00
62791;BME280;48830;53.426;10.300;2023-03-23T11:09:17;100229.16;;;13.45;100.00
62791;BME280;48830;53.426;10.300;2023-03-23T11:11:54;100231.75;;;13.47;100.00
62791;BME280;48830;53.426;10.300;2023-03-23T11:16:56;100233.44;;;13.54;100.00
62791;BME280;48830;53.426;10.300;2023-03-23T11:19:28;100238.59;;;13.57;100.00
62791;BME280;48830;53.426;10.300;2023-03-23T11:22:12;100234.38;;;13.34;100.00
62791;BME280;48830;53.426;10.300;2023-03-23T11:24:43;100241.97;;;13.65;100.00
62791;BME280;48830;53.426;10.300;2023-03-23T11:27:10;100235.22;;;13.39;100.00
62791;BME280;48830;53.426;10.300;2023-03-23T11:29:52;100236.13;;;13.35;100.00
62791;BME280;48830;53.426;10.300;2023-03-23T11:32:23;100227.44;;;13.49;100.00
62791;BME280;48830;53.426;10.300;2023-03-23T11:34:54;100226.63;;;13.37;100.00
62791;BME280;48830;53.426;10.300;2023-03-23T11:37:42;100232.63;;;13.47;100.00
62791;BME280;48830;53.426;10.300;2023-03-23T11:42:49;100246.41;;;13.42;100.00
62791;BME280;48830;53.426;10.300;2023-03-23T11:45:38;100252.44;;;13.34;100.00
62791;BME280;48830;53.426;10.300;2023-03-23T11:51:12;100249.94;;;13.16;100.00
62791;BME280;48830;53.426;10.300;2023-03-23T11:56:38;100242.13;;;13.36;100.00
62791;BME280;48830;53.426;10.300;2023-03-23T11:59:10;100248.19;;;13.27;100.00
62791;BME280;48830;53.426;10.300;2023-03-23T12:01:59;100257.69;;;13.10;100.00
62791;BME280;48830;53.426;10.300;2023-03-23T12:10:04;100274.09;;;12.98;100.00
62791;BME280;48830;53.426;10.300;2023-03-23T12:18:22;100265.47;;;12.96;100.00
62791;BME280;48830;53.426;10.300;2023-03-23T12:28:53;100280.13;;;12.86;100.00
62791;BME280;48830;53.426;10.300;2023-03-23T12:44:46;100264.56;;;13.11;100.00
62791;BME280;48830;53.426;10.300;2023-03-23T12:49:53;100261.13;;;13.12;100.00
62791;BME280;48830;53.426;10.300;2023-03-23T12:52:38;100268.03;;;13.10;100.00
62791;BME280;48830;53.426;10.300;2023-03-23T12:55:23;100251.66;;;13.19;100.00
62791;BME280;48830;53.426;10.300;2023-03-23T13:00:48;100250.75;;;13.35;100.00
62791;BME280;48830;53.426;10.300;2023-03-23T13:03:19;100258.47;;;13.33;100.00
62791;BME280;48830;53.426;10.300;2023-03-23T13:06:19;100244.72;;;13.34;100.00
62791;BME280;48830;53.426;10.300;2023-03-23T13:08:53;100234.44;;;13.16;100.00
62791;BME280;48830;53.426;10.300;2023-03-23T13:14:03;100231.28;;;14.17;100.00
62791;BME280;48830;53.426;10.300;2023-03-23T13:16:53;100247.28;;;14.60;100.00
62791;BME280;48830;53.426;10.300;2023-03-23T13:22:27;100239.63;;;14.45;100.00
62791;BME280;48830;53.426;10.300;2023-03-23T13:25:02;100249.19;;;14.38;100.00
62791;BME280;48830;53.426;10.300;2023-03-23T13:27:29;100237.56;;;14.85;100.00
62791;BME280;48830;53.426;10.300;2023-03-23T13:29:56;100249.13;;;14.44;100.00
62791;BME280;48830;53.426;10.300;2023-03-23T13:32:43;100239.59;;;14.53;100.00
62791;BME280;48830;53.426;10.300;2023-03-23T13:35:17;100242.75;;;14.82;100.00
62791;BME280;48830;53.426;10.300;2023-03-23T13:37:51;100231.78;;;14.59;100.00
62791;BME280;48830;53.426;10.300;2023-03-23T13:40:24;100230.53;;;14.93;100.00
62791;BME280;48830;53.426;10.300;2023-03-23T13:42:53;100222.44;;;15.21;100.00
62791;BME280;48830;53.426;10.300;2023-03-23T13:48:25;100211.19;;;15.25;100.00
62791;BME280;48830;53.426;10.300;2023-03-23T13:51:01;100221.31;;;16.02;100.00
62791;BME280;48830;53.426;10.300;2023-03-23T13:53:42;100229.59;;;16.25;100.00
62791;BME280;48830;53.426;10.300;2023-03-23T13:58:47;100239.44;;;16.04;100.00
62791;BME280;48830;53.426;10.300;2023-03-23T14:01:19;100250.53;;;15.52;100.00
62791;BME280;48830;53.426;10.300;2023-03-23T14:03:49;100243.22;;;15.16;100.00
62791;BME280;48830;53.426;10.300;2023-03-23T14:06:19;100232.06;;;15.10;100.00
62791;BME280;48830;53.426;10.300;2023-03-23T14:14:31;100224.75;;;16.04;98.27
62791;BME280;48830;53.426;10.300;2023-03-23T14:17:14;100224.06;;;15.91;96.91
62791;BME280;48830;53.426;10.300;2023-03-23T14:19:42;100214.09;;;15.67;96.09
62791;BME280;48830;53.426;10.300;2023-03-23T14:22:24;100210.75;;;16.13;93.58
62791;BME280;48830;53.426;10.300;2023-03-23T14:24:52;100217.75;;;16.59;96.23
62791;BME280;48830;53.426;10.300;2023-03-23T14:27:22;100219.84;;;16.38;92.93
62791;BME280;48830;53.426;10.300;2023-03-23T14:30:02;100209.19;;;16.53;90.54
62791;BME280;48830;53.426;10.300;2023-03-23T14:32:30;100202.88;;;15.66;91.06
62791;BME280;48830;53.426;10.300;2023-03-23T14:34:58;100230.22;;;15.21;92.39
62791;BME280;48830;53.426;10.300;2023-03-23T14:37:25;100254.09;;;15.44;95.74
62791;BME280;48830;53.426;10.300;2023-03-23T14:39:54;100261.63;;;14.92;88.21
62791;BME280;48830;53.426;10.300;2023-03-23T14:42:33;100256.84;;;14.54;90.34